sensor_id;sensor_type;location;lat;lon;timestamp;P1;durP1;ratioP1;P2;durP2;ratioP2
13349;SDS011;6744;53.190;6.576;2022-10-19T00:01:21;3.87;;;1.00;;
13349;SDS011;6744;53.190;6.576;2022-10-19T00:03:48;1.73;;;1.13;;
13349;SDS011;6744;53.190;6.576;2022-10-19T00:06:19;2.63;;;1.00;;
13349;SDS011;6744;53.190;6.576;2022-10-19T00:08:53;2.47;;;1.23;;
13349;SDS011;6744;53.190;6.576;2022-10-19T00:11:22;3.33;;;1.10;;
13349;SDS011;6744;53.190;6.576;2022-10-19T00:13:48;1.97;;;1.00;;
13349;SDS011;6744;53.190;6.576;2022-10-19T00:16:14;1.80;;;1.10;;
13349;SDS011;6744;53.190;6.576;2022-10-19T00:18:40;1.80;;;1.10;;
13349;SDS011;6744;53.190;6.576;2022-10-19T00:21:10;1.07;;;0.80;;
13349;SDS011;6744;53.190;6.576;2022-10-19T00:23:36;2.57;;;1.00;;
13349;SDS011;6744;53.190;6.576;2022-10-19T00:26:02;4.37;;;1.30;;
13349;SDS011;6744;53.190;6.576;2022-10-19T00:28:27;2.37;;;1.30;;
13349;SDS011;6744;53.190;6.576;2022-10-19T00:30:53;2.30;;;1.20;;
13349;SDS011;6744;53.190;6.576;2022-10-19T00:33:18;3.40;;;1.37;;
13349;SDS011;6744;53.190;6.576;2022-10-19T00:35:47;2.87;;;1.40;;
13349;SDS011;6744;53.190;6.576;2022-10-19T00:38:16;4.03;;;1.50;;
13349;SDS011;6744;53.190;6.576;2022-10-19T00:40:42;3.53;;;1.20;;
13349;SDS011;6744;53.190;6.576;2022-10-19T00:43:11;2.43;;;1.00;;
13349;SDS011;6744;53.190;6.576;2022-10-19T00:45:38;2.10;;;1.00;;
13349;SDS011;6744;53.190;6.576;2022-10-19T00:48:04;3.30;;;1.30;;
13349;SDS011;6744;53.190;6.576;2022-10-19T00:50:30;2.20;;;1.00;;
13349;SDS011;6744;53.190;6.576;2022-10-19T00:52:55;1.87;;;1.10;;
13349;SDS011;6744;53.190;6.576;2022-10-19T00:55:21;1.57;;;0.83;;
13349;SDS011;6744;53.190;6.576;2022-10-19T00:57:46;2.10;;;1.13;;
13349;SDS011;6744;53.190;6.576;2022-10-19T01:00:12;2.40;;;1.13;;
13349;SDS011;6744;53.190;6.576;2022-10-19T01:02:37;3.37;;;1.03;;
13349;SDS011;6744;53.190;6.576;2022-10-19T01:05:03;2.47;;;1.00;;
13349;SDS011;6744;53.190;6.576;2022-10-19T01:07:28;1.70;;;0.77;;
13349;SDS011;6744;53.190;6.576;2022-10-19T01:09:54;3.17;;;1.00;;
13349;SDS011;6744;53.190;6.576;2022-10-19T01:18:20;2.80;;;0.90;;
13349;SDS011;6744;53.190;6.576;2022-10-19T01:31:43;4.63;;;1.27;;
13349;SDS011;6744;53.190;6.576;2022-10-19T01:37:16;1.33;;;0.57;;
13349;SDS011;6744;53.190;6.576;2022-10-19T01:42:49;2.03;;;0.97;;
13349;SDS011;6744;53.190;6.576;2022-10-19T01:45:26;2.57;;;0.80;;
13349;SDS011;6744;53.190;6.576;2022-10-19T01:50:26;2.20;;;0.87;;
13349;SDS011;6744;53.190;6.576;2022-10-19T01:52:55;1.77;;;0.90;;
13349;SDS011;6744;53.190;6.576;2022-10-19T01:55:21;2.17;;;0.80;;
13349;SDS011;6744;53.190;6.576;2022-10-19T01:57:56;2.90;;;0.80;;
13349;SDS011;6744;53.190;6.576;2022-10-19T02:00:25;2.17;;;0.90;;
13349;SDS011;6744;53.190;6.576;2022-10-19T02:02:52;1.83;;;0.90;;
13349;SDS011;6744;53.190;6.576;2022-10-19T02:05:19;3.20;;;0.87;;
13349;SDS011;6744;53.190;6.576;2022-10-19T02:07:47;2.03;;;0.80;;
13349;SDS011;6744;53.190;6.576;2022-10-19T02:10:14;1.80;;;0.77;;
13349;SDS011;6744;53.190;6.576;2022-10-19T02:12:40;1.73;;;0.90;;
13349;SDS011;6744;53.190;6.576;2022-10-19T02:15:10;2.17;;;0.90;;
13349;SDS011;6744;53.190;6.576;2022-10-19T02:17:39;1.80;;;0.77;;
13349;SDS011;6744;53.190;6.576;2022-10-19T02:20:07;2.90;;;1.10;;
13349;SDS011;6744;53.190;6.576;2022-10-19T02:22:33;3.23;;;1.20;;
13349;SDS011;6744;53.190;6.576;2022-10-19T02:24:58;2.93;;;1.00;;
13349;SDS011;6744;53.190;6.576;2022-10-19T02:27:24;3.60;;;0.80;;
13349;SDS011;6744;53.190;6.576;2022-10-19T02:29:49;2.53;;;0.80;;
13349;SDS011;6744;53.190;6.576;2022-10-19T02:32:15;4.30;;;0.90;;
13349;SDS011;6744;53.190;6.576;2022-10-19T02:34:40;2.73;;;0.80;;
13349;SDS011;6744;53.190;6.576;2022-10-19T02:37:06;1.90;;;0.80;;
13349;SDS011;6744;53.190;6.576;2022-10-19T02:39:31;3.00;;;0.90;;
13349;SDS011;6744;53.190;6.576;2022-10-19T02:41:59;1.93;;;0.80;;
13349;SDS011;6744;53.190;6.576;2022-10-19T02:44:29;2.53;;;1.00;;
13349;SDS011;6744;53.190;6.576;2022-10-19T02:47:02;2.77;;;0.77;;
13349;SDS011;6744;53.190;6.576;2022-10-19T02:49:48;3.13;;;0.73;;
13349;SDS011;6744;53.190;6.576;2022-10-19T02:52:13;4.40;;;0.93;;
13349;SDS011;6744;53.190;6.576;2022-10-19T02:54:39;2.57;;;0.73;;
13349;SDS011;6744;53.190;6.576;2022-10-19T02:57:16;3.77;;;1.10;;
13349;SDS011;6744;53.190;6.576;2022-10-19T02:59:44;3.73;;;1.20;;
13349;SDS011;6744;53.190;6.576;2022-10-19T03:02:09;3.47;;;1.03;;
13349;SDS011;6744;53.190;6.576;2022-10-19T03:04:35;5.67;;;0.97;;
13349;SDS011;6744;53.190;6.576;2022-10-19T03:07:00;3.30;;;1.03;;
13349;SDS011;6744;53.190;6.576;2022-10-19T03:09:25;2.53;;;0.90;;
13349;SDS011;6744;53.190;6.576;2022-10-19T03:11:51;4.80;;;1.10;;
13349;SDS011;6744;53.190;6.576;2022-10-19T03:14:16;1.67;;;0.73;;
13349;SDS011;6744;53.190;6.576;2022-10-19T03:16:41;1.83;;;0.70;;
13349;SDS011;6744;53.190;6.576;2022-10-19T03:19:07;3.13;;;1.13;;
13349;SDS011;6744;53.190;6.576;2022-10-19T03:21:32;2.90;;;0.90;;
13349;SDS011;6744;53.190;6.576;2022-10-19T03:23:59;3.40;;;0.83;;
13349;SDS011;6744;53.190;6.576;2022-10-19T03:26:24;1.80;;;0.60;;
13349;SDS011;6744;53.190;6.576;2022-10-19T03:28:50;3.27;;;1.00;;
13349;SDS011;6744;53.190;6.576;2022-10-19T03:31:15;4.57;;;1.27;;
13349;SDS011;6744;53.190;6.576;2022-10-19T03:33:41;3.33;;;0.70;;
13349;SDS011;6744;53.190;6.576;2022-10-19T03:38:42;3.30;;;0.87;;
13349;SDS011;6744;53.190;6.576;2022-10-19T03:41:08;1.60;;;0.70;;
13349;SDS011;6744;53.190;6.576;2022-10-19T03:43:33;3.13;;;0.90;;
13349;SDS011;6744;53.190;6.576;2022-10-19T03:45:59;3.30;;;1.00;;
13349;SDS011;6744;53.190;6.576;2022-10-19T03:48:24;3.83;;;0.90;;
13349;SDS011;6744;53.190;6.576;2022-10-19T03:51:03;4.30;;;1.23;;
13349;SDS011;6744;53.190;6.576;2022-10-19T03:53:30;3.10;;;0.90;;
13349;SDS011;6744;53.190;6.576;2022-10-19T03:56:03;4.50;;;1.00;;
13349;SDS011;6744;53.190;6.576;2022-10-19T03:58:30;3.20;;;0.90;;
13349;SDS011;6744;53.190;6.576;2022-10-19T04:00:57;3.93;;;1.07;;
13349;SDS011;6744;53.190;6.576;2022-10-19T04:03:22;3.00;;;0.83;;
13349;SDS011;6744;53.190;6.576;2022-10-19T04:05:48;3.93;;;0.90;;
13349;SDS011;6744;53.190;6.576;2022-10-19T04:08:13;4.30;;;1.20;;
13349;SDS011;6744;53.190;6.576;2022-10-19T04:10:38;3.47;;;1.00;;
13349;SDS011;6744;53.190;6.576;2022-10-19T04:13:04;3.87;;;1.37;;
13349;SDS011;6744;53.190;6.576;2022-10-19T04:15:29;2.00;;;0.70;;
13349;SDS011;6744;53.190;6.576;2022-10-19T04:17:54;5.93;;;1.20;;
13349;SDS011;6744;53.190;6.576;2022-10-19T04:20:20;3.93;;;1.33;;
13349;SDS011;6744;53.190;6.576;2022-10-19T04:22:45;3.40;;;1.10;;
13349;SDS011;6744;53.190;6.576;2022-10-19T04:25:10;4.27;;;0.90;;
13349;SDS011;6744;53.190;6.576;2022-10-19T04:27:36;3.07;;;1.17;;
13349;SDS011;6744;53.190;6.576;2022-10-19T04:30:02;3.27;;;1.00;;
13349;SDS011;6744;53.190;6.576;2022-10-19T04:32:27;4.80;;;1.20;;
13349;SDS011;6744;53.190;6.576;2022-10-19T04:34:53;4.67;;;1.27;;
13349;SDS011;6744;53.190;6.576;2022-10-19T04:37:18;4.23;;;1.23;;
13349;SDS011;6744;53.190;6.576;2022-10-19T04:39:43;4.77;;;1.17;;
13349;SDS011;6744;53.190;6.576;2022-10-19T04:42:09;5.97;;;1.30;;
13349;SDS011;6744;53.190;6.576;2022-10-19T04:44:34;4.00;;;1.10;;
13349;SDS011;6744;53.190;6.576;2022-10-19T04:46:59;5.33;;;1.43;;
13349;SDS011;6744;53.190;6.576;2022-10-19T04:49:25;5.10;;;1.33;;
13349;SDS011;6744;53.190;6.576;2022-10-19T04:51:50;7.10;;;1.50;;
13349;SDS011;6744;53.190;6.576;2022-10-19T04:54:16;3.37;;;1.00;;
13349;SDS011;6744;53.190;6.576;2022-10-19T04:56:41;5.00;;;1.27;;
13349;SDS011;6744;53.190;6.576;2022-10-19T04:59:06;6.10;;;1.40;;
13349;SDS011;6744;53.190;6.576;2022-10-19T05:01:33;4.80;;;1.17;;
13349;SDS011;6744;53.190;6.576;2022-10-19T05:04:00;6.23;;;1.37;;
13349;SDS011;6744;53.190;6.576;2022-10-19T05:06:27;5.93;;;1.20;;
13349;SDS011;6744;53.190;6.576;2022-10-19T05:08:53;3.37;;;1.07;;
13349;SDS011;6744;53.190;6.576;2022-10-19T05:11:19;4.23;;;1.17;;
13349;SDS011;6744;53.190;6.576;2022-10-19T05:13:44;3.17;;;1.10;;
13349;SDS011;6744;53.190;6.576;2022-10-19T05:16:11;5.90;;;1.37;;
13349;SDS011;6744;53.190;6.576;2022-10-19T05:18:38;2.50;;;1.00;;
13349;SDS011;6744;53.190;6.576;2022-10-19T05:21:04;5.13;;;1.27;;
13349;SDS011;6744;53.190;6.576;2022-10-19T05:23:31;4.70;;;1.23;;
13349;SDS011;6744;53.190;6.576;2022-10-19T05:26:00;3.00;;;0.90;;
13349;SDS011;6744;53.190;6.576;2022-10-19T05:28:26;4.43;;;1.10;;
13349;SDS011;6744;53.190;6.576;2022-10-19T05:30:51;4.90;;;1.20;;
13349;SDS011;6744;53.190;6.576;2022-10-19T05:33:17;4.67;;;1.23;;
13349;SDS011;6744;53.190;6.576;2022-10-19T05:35:42;4.90;;;1.40;;
13349;SDS011;6744;53.190;6.576;2022-10-19T05:38:07;4.70;;;1.30;;
13349;SDS011;6744;53.190;6.576;2022-10-19T05:40:33;3.73;;;1.00;;
13349;SDS011;6744;53.190;6.576;2022-10-19T05:42:58;4.23;;;0.83;;
13349;SDS011;6744;53.190;6.576;2022-10-19T05:45:23;4.70;;;1.30;;
13349;SDS011;6744;53.190;6.576;2022-10-19T05:47:49;5.10;;;1.10;;
13349;SDS011;6744;53.190;6.576;2022-10-19T05:50:14;4.50;;;1.37;;
13349;SDS011;6744;53.190;6.576;2022-10-19T05:52:39;5.87;;;1.10;;
13349;SDS011;6744;53.190;6.576;2022-10-19T05:55:05;3.23;;;1.27;;
13349;SDS011;6744;53.190;6.576;2022-10-19T05:57:31;5.67;;;1.43;;
13349;SDS011;6744;53.190;6.576;2022-10-19T05:59:56;4.57;;;1.27;;
13349;SDS011;6744;53.190;6.576;2022-10-19T06:02:22;6.33;;;1.40;;
13349;SDS011;6744;53.190;6.576;2022-10-19T06:04:48;5.10;;;1.30;;
13349;SDS011;6744;53.190;6.576;2022-10-19T06:07:13;3.90;;;1.07;;
13349;SDS011;6744;53.190;6.576;2022-10-19T06:09:39;3.90;;;1.13;;
13349;SDS011;6744;53.190;6.576;2022-10-19T06:12:04;4.23;;;1.33;;
13349;SDS011;6744;53.190;6.576;2022-10-19T06:14:29;4.03;;;1.23;;
13349;SDS011;6744;53.190;6.576;2022-10-19T06:16:55;4.67;;;1.20;;
13349;SDS011;6744;53.190;6.576;2022-10-19T06:19:20;3.07;;;1.10;;
13349;SDS011;6744;53.190;6.576;2022-10-19T06:21:45;5.00;;;1.20;;
13349;SDS011;6744;53.190;6.576;2022-10-19T06:24:11;3.70;;;1.30;;
13349;SDS011;6744;53.190;6.576;2022-10-19T06:26:37;3.97;;;1.43;;
13349;SDS011;6744;53.190;6.576;2022-10-19T06:29:02;4.57;;;1.40;;
13349;SDS011;6744;53.190;6.576;2022-10-19T06:31:29;4.97;;;1.70;;
13349;SDS011;6744;53.190;6.576;2022-10-19T06:33:56;4.77;;;1.40;;
13349;SDS011;6744;53.190;6.576;2022-10-19T06:36:23;3.97;;;1.10;;
13349;SDS011;6744;53.190;6.576;2022-10-19T06:38:50;6.87;;;1.20;;
13349;SDS011;6744;53.190;6.576;2022-10-19T06:41:17;2.77;;;1.10;;
13349;SDS011;6744;53.190;6.576;2022-10-19T06:43:43;4.47;;;1.43;;
13349;SDS011;6744;53.190;6.576;2022-10-19T06:46:13;8.17;;;1.70;;
13349;SDS011;6744;53.190;6.576;2022-10-19T06:48:41;7.50;;;1.87;;
13349;SDS011;6744;53.190;6.576;2022-10-19T06:51:06;4.47;;;1.33;;
13349;SDS011;6744;53.190;6.576;2022-10-19T06:53:35;7.00;;;1.63;;
13349;SDS011;6744;53.190;6.576;2022-10-19T06:56:01;5.90;;;1.23;;
13349;SDS011;6744;53.190;6.576;2022-10-19T06:58:28;7.23;;;1.67;;
13349;SDS011;6744;53.190;6.576;2022-10-19T07:00:58;4.43;;;1.30;;
13349;SDS011;6744;53.190;6.576;2022-10-19T07:03:24;3.77;;;1.27;;
13349;SDS011;6744;53.190;6.576;2022-10-19T07:05:51;3.43;;;1.33;;
13349;SDS011;6744;53.190;6.576;2022-10-19T07:08:20;5.03;;;1.50;;
13349;SDS011;6744;53.190;6.576;2022-10-19T07:10:52;4.03;;;1.37;;
13349;SDS011;6744;53.190;6.576;2022-10-19T07:13:19;3.90;;;1.10;;
13349;SDS011;6744;53.190;6.576;2022-10-19T07:15:45;4.40;;;1.30;;
13349;SDS011;6744;53.190;6.576;2022-10-19T07:18:10;4.80;;;1.20;;
13349;SDS011;6744;53.190;6.576;2022-10-19T07:20:36;6.20;;;1.30;;
13349;SDS011;6744;53.190;6.576;2022-10-19T07:23:01;5.20;;;1.30;;
13349;SDS011;6744;53.190;6.576;2022-10-19T07:25:26;3.50;;;0.90;;
13349;SDS011;6744;53.190;6.576;2022-10-19T07:27:52;4.07;;;1.33;;
13349;SDS011;6744;53.190;6.576;2022-10-19T07:30:17;3.47;;;0.97;;
13349;SDS011;6744;53.190;6.576;2022-10-19T07:32:44;4.50;;;1.27;;
13349;SDS011;6744;53.190;6.576;2022-10-19T07:35:09;3.83;;;1.20;;
13349;SDS011;6744;53.190;6.576;2022-10-19T07:37:35;3.57;;;1.10;;
13349;SDS011;6744;53.190;6.576;2022-10-19T07:40:00;5.50;;;1.20;;
13349;SDS011;6744;53.190;6.576;2022-10-19T07:42:27;5.13;;;1.27;;
13349;SDS011;6744;53.190;6.576;2022-10-19T07:44:54;5.80;;;1.40;;
13349;SDS011;6744;53.190;6.576;2022-10-19T07:47:19;5.37;;;1.40;;
13349;SDS011;6744;53.190;6.576;2022-10-19T07:49:45;7.40;;;1.57;;
13349;SDS011;6744;53.190;6.576;2022-10-19T07:52:10;4.63;;;1.50;;
13349;SDS011;6744;53.190;6.576;2022-10-19T07:54:35;6.27;;;1.57;;
13349;SDS011;6744;53.190;6.576;2022-10-19T07:57:01;4.60;;;1.50;;
13349;SDS011;6744;53.190;6.576;2022-10-19T07:59:26;5.37;;;1.40;;
13349;SDS011;6744;53.190;6.576;2022-10-19T08:01:51;3.43;;;1.30;;
13349;SDS011;6744;53.190;6.576;2022-10-19T08:04:18;3.83;;;1.23;;
13349;SDS011;6744;53.190;6.576;2022-10-19T08:06:43;6.00;;;1.67;;
13349;SDS011;6744;53.190;6.576;2022-10-19T08:09:09;6.00;;;1.57;;
13349;SDS011;6744;53.190;6.576;2022-10-19T08:11:34;4.07;;;1.30;;
13349;SDS011;6744;53.190;6.576;2022-10-19T08:14:00;5.33;;;1.70;;
13349;SDS011;6744;53.190;6.576;2022-10-19T08:16:36;5.97;;;1.57;;
13349;SDS011;6744;53.190;6.576;2022-10-19T08:19:11;7.33;;;1.97;;
13349;SDS011;6744;53.190;6.576;2022-10-19T08:21:38;5.70;;;1.20;;
13349;SDS011;6744;53.190;6.576;2022-10-19T08:24:07;8.40;;;1.40;;
13349;SDS011;6744;53.190;6.576;2022-10-19T08:26:33;6.27;;;1.50;;
13349;SDS011;6744;53.190;6.576;2022-10-19T08:29:00;6.40;;;1.20;;
13349;SDS011;6744;53.190;6.576;2022-10-19T08:31:28;4.47;;;1.20;;
13349;SDS011;6744;53.190;6.576;2022-10-19T08:33:53;3.97;;;1.10;;
13349;SDS011;6744;53.190;6.576;2022-10-19T08:36:19;4.83;;;1.13;;
13349;SDS011;6744;53.190;6.576;2022-10-19T08:38:45;7.40;;;1.43;;
13349;SDS011;6744;53.190;6.576;2022-10-19T08:46:24;4.13;;;1.13;;
13349;SDS011;6744;53.190;6.576;2022-10-19T08:48:59;3.73;;;1.10;;
13349;SDS011;6744;53.190;6.576;2022-10-19T08:51:24;7.70;;;1.33;;
13349;SDS011;6744;53.190;6.576;2022-10-19T08:53:53;6.80;;;1.23;;
13349;SDS011;6744;53.190;6.576;2022-10-19T08:56:25;7.47;;;1.87;;
13349;SDS011;6744;53.190;6.576;2022-10-19T09:04:31;6.97;;;1.40;;
13349;SDS011;6744;53.190;6.576;2022-10-19T09:07:11;6.20;;;1.40;;
13349;SDS011;6744;53.190;6.576;2022-10-19T09:10:00;7.20;;;1.47;;
13349;SDS011;6744;53.190;6.576;2022-10-19T09:12:49;2.87;;;1.10;;
13349;SDS011;6744;53.190;6.576;2022-10-19T09:15:17;3.17;;;1.20;;
13349;SDS011;6744;53.190;6.576;2022-10-19T09:17:43;5.53;;;1.17;;
13349;SDS011;6744;53.190;6.576;2022-10-19T09:20:13;3.37;;;1.00;;
13349;SDS011;6744;53.190;6.576;2022-10-19T09:22:43;4.50;;;1.10;;
13349;SDS011;6744;53.190;6.576;2022-10-19T09:25:13;3.30;;;0.90;;
13349;SDS011;6744;53.190;6.576;2022-10-19T09:27:43;4.20;;;0.90;;
13349;SDS011;6744;53.190;6.576;2022-10-19T09:30:18;5.13;;;1.20;;
13349;SDS011;6744;53.190;6.576;2022-10-19T09:32:45;5.53;;;1.10;;
13349;SDS011;6744;53.190;6.576;2022-10-19T09:37:47;5.03;;;1.07;;
13349;SDS011;6744;53.190;6.576;2022-10-19T09:40:18;7.00;;;1.60;;
13349;SDS011;6744;53.190;6.576;2022-10-19T09:42:47;4.23;;;1.10;;
13349;SDS011;6744;53.190;6.576;2022-10-19T09:48:09;4.53;;;1.07;;
13349;SDS011;6744;53.190;6.576;2022-10-19T09:50:41;7.40;;;1.20;;
13349;SDS011;6744;53.190;6.576;2022-10-19T09:53:14;7.53;;;1.50;;
13349;SDS011;6744;53.190;6.576;2022-10-19T09:55:45;5.57;;;1.10;;
13349;SDS011;6744;53.190;6.576;2022-10-19T10:00:38;4.77;;;1.40;;
13349;SDS011;6744;53.190;6.576;2022-10-19T10:03:07;4.67;;;1.20;;
13349;SDS011;6744;53.190;6.576;2022-10-19T10:05:48;5.60;;;1.33;;
13349;SDS011;6744;53.190;6.576;2022-10-19T10:08:15;7.03;;;1.30;;
13349;SDS011;6744;53.190;6.576;2022-10-19T10:10:45;3.17;;;1.00;;
13349;SDS011;6744;53.190;6.576;2022-10-19T10:13:16;5.27;;;1.33;;
13349;SDS011;6744;53.190;6.576;2022-10-19T10:15:46;7.23;;;1.40;;
13349;SDS011;6744;53.190;6.576;2022-10-19T10:18:14;6.40;;;1.20;;
13349;SDS011;6744;53.190;6.576;2022-10-19T10:23:30;4.53;;;1.33;;
13349;SDS011;6744;53.190;6.576;2022-10-19T10:26:01;4.87;;;0.93;;
13349;SDS011;6744;53.190;6.576;2022-10-19T10:28:27;5.10;;;1.07;;
13349;SDS011;6744;53.190;6.576;2022-10-19T10:31:14;5.33;;;1.10;;
13349;SDS011;6744;53.190;6.576;2022-10-19T10:33:39;4.67;;;1.00;;
13349;SDS011;6744;53.190;6.576;2022-10-19T10:36:08;8.00;;;1.30;;
13349;SDS011;6744;53.190;6.576;2022-10-19T10:38:34;4.30;;;1.00;;
13349;SDS011;6744;53.190;6.576;2022-10-19T10:41:03;6.10;;;1.20;;
13349;SDS011;6744;53.190;6.576;2022-10-19T10:43:33;4.70;;;1.30;;
13349;SDS011;6744;53.190;6.576;2022-10-19T10:46:00;6.27;;;1.50;;
13349;SDS011;6744;53.190;6.576;2022-10-19T10:48:35;2.93;;;1.20;;
13349;SDS011;6744;53.190;6.576;2022-10-19T10:51:02;3.20;;;0.93;;
13349;SDS011;6744;53.190;6.576;2022-10-19T10:53:41;5.23;;;1.30;;
13349;SDS011;6744;53.190;6.576;2022-10-19T10:56:21;4.47;;;1.27;;
13349;SDS011;6744;53.190;6.576;2022-10-19T11:01:21;3.53;;;1.10;;
13349;SDS011;6744;53.190;6.576;2022-10-19T11:04:01;5.93;;;1.30;;
13349;SDS011;6744;53.190;6.576;2022-10-19T11:06:29;5.20;;;1.10;;
13349;SDS011;6744;53.190;6.576;2022-10-19T11:08:59;5.90;;;1.30;;
13349;SDS011;6744;53.190;6.576;2022-10-19T11:11:33;6.10;;;1.43;;
13349;SDS011;6744;53.190;6.576;2022-10-19T11:16:40;6.40;;;1.33;;
13349;SDS011;6744;53.190;6.576;2022-10-19T11:19:15;5.83;;;1.40;;
13349;SDS011;6744;53.190;6.576;2022-10-19T11:21:47;7.97;;;1.43;;
13349;SDS011;6744;53.190;6.576;2022-10-19T11:27:13;5.57;;;1.30;;
13349;SDS011;6744;53.190;6.576;2022-10-19T11:29:47;4.43;;;1.27;;
13349;SDS011;6744;53.190;6.576;2022-10-19T11:34:51;7.87;;;1.50;;
13349;SDS011;6744;53.190;6.576;2022-10-19T11:37:32;5.83;;;1.20;;
13349;SDS011;6744;53.190;6.576;2022-10-19T11:51:01;4.67;;;1.30;;
13349;SDS011;6744;53.190;6.576;2022-10-19T11:56:35;6.00;;;1.53;;
13349;SDS011;6744;53.190;6.576;2022-10-19T11:59:22;5.97;;;1.50;;
13349;SDS011;6744;53.190;6.576;2022-10-19T12:02:04;6.23;;;1.33;;
13349;SDS011;6744;53.190;6.576;2022-10-19T12:12:32;5.73;;;1.43;;
13349;SDS011;6744;53.190;6.576;2022-10-19T12:15:22;4.13;;;1.00;;
13349;SDS011;6744;53.190;6.576;2022-10-19T12:17:47;5.73;;;0.93;;
13349;SDS011;6744;53.190;6.576;2022-10-19T12:25:50;4.80;;;1.27;;
13349;SDS011;6744;53.190;6.576;2022-10-19T12:28:20;5.53;;;1.33;;
13349;SDS011;6744;53.190;6.576;2022-10-19T12:30:49;5.23;;;1.23;;
13349;SDS011;6744;53.190;6.576;2022-10-19T12:33:34;5.03;;;1.40;;
13349;SDS011;6744;53.190;6.576;2022-10-19T12:38:55;7.93;;;1.70;;
13349;SDS011;6744;53.190;6.576;2022-10-19T12:41:26;6.53;;;1.23;;
13349;SDS011;6744;53.190;6.576;2022-10-19T12:46:43;5.00;;;1.40;;
13349;SDS011;6744;53.190;6.576;2022-10-19T12:51:55;7.00;;;1.40;;
13349;SDS011;6744;53.190;6.576;2022-10-19T12:54:22;7.50;;;1.50;;
13349;SDS011;6744;53.190;6.576;2022-10-19T12:56:49;5.43;;;1.30;;
13349;SDS011;6744;53.190;6.576;2022-10-19T12:59:21;3.13;;;1.20;;
13349;SDS011;6744;53.190;6.576;2022-10-19T13:01:48;5.37;;;1.47;;
13349;SDS011;6744;53.190;6.576;2022-10-19T13:06:46;4.10;;;1.50;;
13349;SDS011;6744;53.190;6.576;2022-10-19T13:17:06;7.17;;;1.80;;
13349;SDS011;6744;53.190;6.576;2022-10-19T13:19:31;5.27;;;1.43;;
13349;SDS011;6744;53.190;6.576;2022-10-19T13:27:03;5.73;;;1.47;;
13349;SDS011;6744;53.190;6.576;2022-10-19T13:38:08;4.63;;;1.53;;
13349;SDS011;6744;53.190;6.576;2022-10-19T13:40:53;6.03;;;1.60;;
13349;SDS011;6744;53.190;6.576;2022-10-19T13:46:14;3.60;;;1.10;;
13349;SDS011;6744;53.190;6.576;2022-10-19T14:00:16;6.23;;;1.30;;
13349;SDS011;6744;53.190;6.576;2022-10-19T14:10:45;4.30;;;1.33;;
13349;SDS011;6744;53.190;6.576;2022-10-19T14:13:13;4.27;;;1.20;;
13349;SDS011;6744;53.190;6.576;2022-10-19T14:15:47;6.93;;;1.43;;
13349;SDS011;6744;53.190;6.576;2022-10-19T14:18:22;4.97;;;1.00;;
13349;SDS011;6744;53.190;6.576;2022-10-19T14:20:55;2.80;;;1.03;;
13349;SDS011;6744;53.190;6.576;2022-10-19T14:23:28;3.87;;;1.10;;
13349;SDS011;6744;53.190;6.576;2022-10-19T14:25:59;2.57;;;1.00;;
13349;SDS011;6744;53.190;6.576;2022-10-19T14:28:26;5.83;;;1.30;;
13349;SDS011;6744;53.190;6.576;2022-10-19T14:33:24;3.57;;;0.90;;
13349;SDS011;6744;53.190;6.576;2022-10-19T14:35:51;4.80;;;1.57;;
13349;SDS011;6744;53.190;6.576;2022-10-19T14:38:18;4.43;;;1.37;;
13349;SDS011;6744;53.190;6.576;2022-10-19T14:40:46;5.97;;;1.20;;
13349;SDS011;6744;53.190;6.576;2022-10-19T14:43:25;3.83;;;1.00;;
13349;SDS011;6744;53.190;6.576;2022-10-19T14:48:36;3.47;;;1.30;;
13349;SDS011;6744;53.190;6.576;2022-10-19T14:51:09;3.53;;;1.47;;
13349;SDS011;6744;53.190;6.576;2022-10-19T14:53:39;5.30;;;1.80;;
13349;SDS011;6744;53.190;6.576;2022-10-19T14:56:16;6.43;;;2.30;;
13349;SDS011;6744;53.190;6.576;2022-10-19T14:58:48;5.00;;;2.20;;
13349;SDS011;6744;53.190;6.576;2022-10-19T15:01:16;4.10;;;1.57;;
13349;SDS011;6744;53.190;6.576;2022-10-19T15:03:43;4.10;;;1.37;;
13349;SDS011;6744;53.190;6.576;2022-10-19T15:06:15;5.40;;;1.80;;
13349;SDS011;6744;53.190;6.576;2022-10-19T15:08:55;4.10;;;2.00;;
13349;SDS011;6744;53.190;6.576;2022-10-19T15:16:39;4.83;;;2.50;;
13349;SDS011;6744;53.190;6.576;2022-10-19T15:19:38;5.23;;;2.47;;
13349;SDS011;6744;53.190;6.576;2022-10-19T15:22:06;5.03;;;2.10;;
13349;SDS011;6744;53.190;6.576;2022-10-19T15:24:37;3.90;;;2.40;;
13349;SDS011;6744;53.190;6.576;2022-10-19T15:27:37;5.30;;;2.70;;
13349;SDS011;6744;53.190;6.576;2022-10-19T15:29:56;5.43;;;2.77;;
13349;SDS011;6744;53.190;6.576;2022-10-19T15:32:34;5.50;;;2.80;;
13349;SDS011;6744;53.190;6.576;2022-10-19T15:35:10;2.73;;;2.50;;
13349;SDS011;6744;53.190;6.576;2022-10-19T15:37:42;4.57;;;2.63;;
13349;SDS011;6744;53.190;6.576;2022-10-19T15:40:09;6.60;;;2.73;;
13349;SDS011;6744;53.190;6.576;2022-10-19T15:42:37;4.33;;;2.50;;
13349;SDS011;6744;53.190;6.576;2022-10-19T15:45:47;5.23;;;3.30;;
13349;SDS011;6744;53.190;6.576;2022-10-19T15:50:36;5.13;;;3.40;;
13349;SDS011;6744;53.190;6.576;2022-10-19T15:53:03;4.20;;;3.70;;
13349;SDS011;6744;53.190;6.576;2022-10-19T15:55:29;6.87;;;3.80;;
13349;SDS011;6744;53.190;6.576;2022-10-19T15:57:57;5.40;;;3.40;;
13349;SDS011;6744;53.190;6.576;2022-10-19T16:00:24;4.80;;;3.47;;
13349;SDS011;6744;53.190;6.576;2022-10-19T16:02:49;5.43;;;3.47;;
13349;SDS011;6744;53.190;6.576;2022-10-19T16:05:15;4.13;;;3.53;;
13349;SDS011;6744;53.190;6.576;2022-10-19T16:07:40;5.87;;;3.70;;
13349;SDS011;6744;53.190;6.576;2022-10-19T16:10:06;4.97;;;3.80;;
13349;SDS011;6744;53.190;6.576;2022-10-19T16:12:32;4.30;;;3.60;;
13349;SDS011;6744;53.190;6.576;2022-10-19T16:14:58;4.27;;;3.30;;
13349;SDS011;6744;53.190;6.576;2022-10-19T16:17:23;4.13;;;3.50;;
13349;SDS011;6744;53.190;6.576;2022-10-19T16:19:49;4.13;;;3.33;;
13349;SDS011;6744;53.190;6.576;2022-10-19T16:22:14;5.97;;;3.97;;
13349;SDS011;6744;53.190;6.576;2022-10-19T16:24:40;4.47;;;4.00;;
13349;SDS011;6744;53.190;6.576;2022-10-19T16:27:06;5.30;;;4.10;;
13349;SDS011;6744;53.190;6.576;2022-10-19T16:29:31;4.03;;;3.60;;
13349;SDS011;6744;53.190;6.576;2022-10-19T16:31:57;4.60;;;3.60;;
13349;SDS011;6744;53.190;6.576;2022-10-19T16:34:22;4.70;;;4.30;;
13349;SDS011;6744;53.190;6.576;2022-10-19T16:36:48;6.53;;;4.43;;
13349;SDS011;6744;53.190;6.576;2022-10-19T16:39:13;6.77;;;4.40;;
13349;SDS011;6744;53.190;6.576;2022-10-19T16:41:38;7.70;;;4.43;;
13349;SDS011;6744;53.190;6.576;2022-10-19T16:44:04;8.20;;;4.67;;
13349;SDS011;6744;53.190;6.576;2022-10-19T16:46:29;5.60;;;4.77;;
13349;SDS011;6744;53.190;6.576;2022-10-19T16:48:55;6.07;;;4.77;;
13349;SDS011;6744;53.190;6.576;2022-10-19T16:51:24;5.87;;;4.70;;
13349;SDS011;6744;53.190;6.576;2022-10-19T16:53:53;7.20;;;5.50;;
13349;SDS011;6744;53.190;6.576;2022-10-19T16:56:21;6.97;;;5.20;;
13349;SDS011;6744;53.190;6.576;2022-10-19T16:58:47;6.03;;;5.37;;
13349;SDS011;6744;53.190;6.576;2022-10-19T17:01:17;7.83;;;5.20;;
13349;SDS011;6744;53.190;6.576;2022-10-19T17:03:43;7.17;;;6.30;;
13349;SDS011;6744;53.190;6.576;2022-10-19T17:06:09;8.33;;;5.63;;
13349;SDS011;6744;53.190;6.576;2022-10-19T17:08:35;6.90;;;5.97;;
13349;SDS011;6744;53.190;6.576;2022-10-19T17:11:07;6.00;;;5.27;;
13349;SDS011;6744;53.190;6.576;2022-10-19T17:13:36;8.30;;;5.97;;
13349;SDS011;6744;53.190;6.576;2022-10-19T17:16:02;5.87;;;5.37;;
13349;SDS011;6744;53.190;6.576;2022-10-19T17:18:28;6.67;;;5.27;;
13349;SDS011;6744;53.190;6.576;2022-10-19T17:20:53;6.23;;;5.00;;
13349;SDS011;6744;53.190;6.576;2022-10-19T17:23:19;6.37;;;5.03;;
13349;SDS011;6744;53.190;6.576;2022-10-19T17:25:47;6.87;;;4.77;;
13349;SDS011;6744;53.190;6.576;2022-10-19T17:28:13;6.20;;;4.67;;
13349;SDS011;6744;53.190;6.576;2022-10-19T17:30:41;5.47;;;4.27;;
13349;SDS011;6744;53.190;6.576;2022-10-19T17:33:07;4.67;;;4.00;;
13349;SDS011;6744;53.190;6.576;2022-10-19T17:35:32;4.97;;;4.10;;
13349;SDS011;6744;53.190;6.576;2022-10-19T17:37:58;4.30;;;3.43;;
13349;SDS011;6744;53.190;6.576;2022-10-19T17:40:23;5.43;;;3.90;;
13349;SDS011;6744;53.190;6.576;2022-10-19T17:42:49;5.60;;;3.40;;